대문
인공위성 심상 15 일 일기 예보기후바람 예보 사이클론 번개 공항FAQ 회보 프로젝트 소개
날씨 : 유럽 아프리카 북아메리카 남아메리카 아시아 오스트레일리아-오세아니아 다른 사람
언어 접촉

청도, 중국

위도: 36-04N, 경도: 120-20E, 해발고도: 77 m


METAR: ZSQD 161700Z 35004MPS 3000 -RA BR NSC 17/15 Q1019 BECMG TL1800 2500 BR
short-TAF: 구식인 (64999 시간)
long-TAF: ZSQD 161532Z 1618/1718 36004MPS 3000 -RA BR NSC TX23/1706Z TN15/20Z

시간: 01:27 (17:27 UTC)

날씨관측

보고는 전에 26 분 제출되었다: 17:00 UTC  
바람 8 kt  
온도 17°C
습도 88%
기압 1019 hPa
시정 3000 m
빛 비 그리고 박무

단위계

날씨예보

보고는 전에 1 시간 그리고 24 분 제출되었다: 16:03 UTC  
예보기간[UTC] : 16일 18시 ~ 17일 18시
바람 8 kt  
시정 3000 m
빛 비 그리고 박무
이 위치에 정보는 a를 조건으로 하여 이다 포기
날씨 : 유럽 아프리카 북아메리카 남아메리카 아시아 오스트레일리아-오세아니아 다른 사람
인공위성 심상 15 일 일기 예보기후바람 예보 사이클론 번개 공항FAQ 언어 접촉 회보 프로젝트 소개